createdAt,value
2018-05-02T00:00:38.839Z,9.32
2018-05-02T00:01:38.833Z,9.31
2018-05-02T00:02:38.577Z,9.29
2018-05-02T00:03:38.848Z,9.14
2018-05-02T00:04:38.838Z,9.11
2018-05-02T00:05:38.824Z,9.18
2018-05-02T00:06:38.819Z,9.28
2018-05-02T00:07:38.851Z,9.19
2018-05-02T00:08:38.555Z,9.16
2018-05-02T00:09:38.557Z,9.22
2018-05-02T00:10:38.553Z,9.23
2018-05-02T00:11:38.797Z,9.16
2018-05-02T00:12:38.544Z,9.18
2018-05-02T00:13:38.530Z,9.11
2018-05-02T00:14:38.789Z,9.11
2018-05-02T00:15:38.858Z,9.14
2018-05-02T00:16:39.206Z,9.11
2018-05-02T00:17:38.511Z,9.06
2018-05-02T00:18:38.776Z,9.08
2018-05-02T00:19:38.494Z,9.04
2018-05-02T00:20:38.562Z,9.06
2018-05-02T00:21:38.557Z,9.1
2018-05-02T00:22:38.226Z,9.06
2018-05-02T00:23:38.224Z,9.14
2018-05-02T00:24:38.464Z,9.1
2018-05-02T00:25:38.462Z,9.04
2018-05-02T00:26:38.463Z,9.08
2018-05-02T00:27:38.449Z,9.14
2018-05-02T00:28:38.861Z,9.08
2018-05-02T00:29:38.460Z,9.04
2018-05-02T00:30:38.844Z,9.06
2018-05-02T00:31:38.181Z,9.04
2018-05-02T00:32:38.430Z,9.11
2018-05-02T00:33:38.186Z,9.1
2018-05-02T00:34:38.722Z,9.08
2018-05-02T00:35:38.671Z,9.03
2018-05-02T00:36:38.679Z,8.99
2018-05-02T00:37:38.404Z,9.04
2018-05-02T00:38:38.692Z,9.04
2018-05-02T00:39:38.676Z,9.06
2018-05-02T00:40:38.662Z,9.06
2018-05-02T00:41:38.385Z,9
2018-05-02T00:42:38.650Z,9.06
2018-05-02T00:43:38.643Z,9.04
2018-05-02T00:44:38.373Z,9.04
2018-05-02T00:45:38.361Z,9.06
2018-05-02T00:46:40.471Z,9.08
2018-05-02T00:47:38.651Z,9.1
2018-05-02T00:48:38.348Z,8.99
2018-05-02T00:49:38.603Z,9.03
2018-05-02T00:50:38.619Z,9.08
2018-05-02T00:51:38.093Z,9.02
2018-05-02T00:52:38.090Z,9.03
2018-05-02T00:53:38.338Z,9.04
2018-05-02T00:54:38.078Z,9.02
2018-05-02T00:55:38.597Z,9.03
2018-05-02T00:56:38.585Z,9.04
2018-05-02T00:57:38.317Z,8.97
2018-05-02T00:58:38.580Z,8.99
2018-05-02T00:59:38.578Z,9
2018-05-02T01:00:38.550Z,9.02
2018-05-02T01:01:38.291Z,9.03
2018-05-02T01:02:38.301Z,8.92
2018-05-02T01:03:38.357Z,9.03
2018-05-02T01:04:38.286Z,9.02
2018-05-02T01:05:38.519Z,9.03
2018-05-02T01:06:38.022Z,9.02
2018-05-02T01:07:38.518Z,9.06
2018-05-02T01:08:38.507Z,9.14
2018-05-02T01:09:38.254Z,9.14
2018-05-02T01:10:38.256Z,9.14
2018-05-02T01:11:38.509Z,9.18
2018-05-02T01:12:38.495Z,9.22
2018-05-02T01:13:38.504Z,9.16
2018-05-02T01:14:38.244Z,9.26
2018-05-02T01:15:38.547Z,9.18
2018-05-02T01:16:40.321Z,9.29
2018-05-02T01:17:38.464Z,9.16
2018-05-02T01:18:38.211Z,9.19
2018-05-02T01:19:38.209Z,9.14
2018-05-02T01:20:37.987Z,9.23
2018-05-02T01:21:38.459Z,9.19
2018-05-02T01:22:38.463Z,9.23
2018-05-02T01:23:38.452Z,9.18
2018-05-02T01:24:38.438Z,9.18
2018-05-02T01:25:38.183Z,9.14
2018-05-02T01:26:38.433Z,9.19
2018-05-02T01:27:38.167Z,9.16
2018-05-02T01:28:38.411Z,9.18
2018-05-02T01:29:38.170Z,9.22
2018-05-02T01:30:38.436Z,9.16
2018-05-02T01:31:38.178Z,9.26
2018-05-02T01:32:38.153Z,9.21
2018-05-02T01:33:38.142Z,9.31
2018-05-02T01:34:38.388Z,9.18
2018-05-02T01:35:38.392Z,9.29
2018-05-02T01:36:38.140Z,9.25
2018-05-02T01:37:37.893Z,9.28
2018-05-02T01:38:38.121Z,9.28
2018-05-02T01:39:38.118Z,9.36
2018-05-02T01:40:37.865Z,9.37
2018-05-02T01:41:38.357Z,9.36
2018-05-02T01:42:38.358Z,9.43
2018-05-02T01:43:38.098Z,9.36
2018-05-02T01:44:38.359Z,9.39
2018-05-02T01:45:38.087Z,9.44
2018-05-02T01:46:41.287Z,9.41
2018-05-02T01:47:38.091Z,9.51
2018-05-02T01:48:38.069Z,9.43
2018-05-02T01:49:38.071Z,9.43
2018-05-02T01:50:38.064Z,9.43
2018-05-02T01:51:38.061Z,9.47
2018-05-02T01:52:37.820Z,9.43
2018-05-02T01:53:37.802Z,9.51
2018-05-02T01:54:38.303Z,9.55
2018-05-02T01:55:37.803Z,9.54
2018-05-02T01:56:38.288Z,9.55
2018-05-02T01:57:38.033Z,9.54
2018-05-02T01:58:38.283Z,9.59
2018-05-02T01:59:38.026Z,9.61
2018-05-02T02:00:38.022Z,9.64
2018-05-02T02:01:37.783Z,9.56
2018-05-02T02:02:38.010Z,9.61
2018-05-02T02:03:38.018Z,9.65
2018-05-02T02:04:38.010Z,9.69
2018-05-02T02:05:38.069Z,9.61
2018-05-02T02:06:38.257Z,9.68
2018-05-02T02:07:38.251Z,9.72
2018-05-02T02:08:37.990Z,9.74
2018-05-02T02:09:38.235Z,9.65
2018-05-02T02:10:38.228Z,9.62
2018-05-02T02:11:37.974Z,9.62
2018-05-02T02:12:37.974Z,9.55
2018-05-02T02:13:38.223Z,9.56
2018-05-02T02:14:38.209Z,9.58
2018-05-02T02:15:37.958Z,9.56
2018-05-02T02:16:37.701Z,9.55
2018-05-02T02:17:38.200Z,9.64
2018-05-02T02:18:38.187Z,9.48
2018-05-02T02:19:37.940Z,9.58
2018-05-02T02:20:37.684Z,9.54
2018-05-02T02:21:37.686Z,9.51
2018-05-02T02:22:38.173Z,9.58
2018-05-02T02:23:38.169Z,9.48
2018-05-02T02:24:38.163Z,9.5
2018-05-02T02:25:37.935Z,9.44
2018-05-02T02:26:37.900Z,9.36
2018-05-02T02:27:38.167Z,9.41
2018-05-02T02:28:37.903Z,9.43
2018-05-02T02:29:37.894Z,9.44
2018-05-02T02:30:38.149Z,9.41
2018-05-02T02:31:37.914Z,9.5
2018-05-02T02:32:38.146Z,9.47
2018-05-02T02:33:38.477Z,9.4
2018-05-02T02:34:37.886Z,9.4
2018-05-02T02:35:38.123Z,9.31
2018-05-02T02:36:38.136Z,9.29
2018-05-02T02:37:37.862Z,9.21
2018-05-02T02:38:37.874Z,9.19
2018-05-02T02:39:38.109Z,9.18
2018-05-02T02:40:37.844Z,9.25
2018-05-02T02:41:38.089Z,9.18
2018-05-02T02:42:37.834Z,9.25
2018-05-02T02:43:37.828Z,9.23
2018-05-02T02:44:38.100Z,9.18
2018-05-02T02:45:37.846Z,9.21
2018-05-02T02:46:37.827Z,9.13
2018-05-02T02:47:40.790Z,9.25
2018-05-02T02:48:37.860Z,9.31
2018-05-02T02:49:38.049Z,9.36
2018-05-02T02:50:37.565Z,9.29
2018-05-02T02:51:38.060Z,9.23
2018-05-02T02:52:38.029Z,9.29
2018-05-02T02:53:37.783Z,9.31
2018-05-02T02:54:37.791Z,9.31
2018-05-02T02:55:38.030Z,9.32
2018-05-02T02:56:37.515Z,9.32
2018-05-02T02:57:38.026Z,9.34
2018-05-02T02:58:38.032Z,9.37
2018-05-02T02:59:38.012Z,9.26
2018-05-02T03:00:37.776Z,9.28
2018-05-02T03:01:38.013Z,9.37
2018-05-02T03:02:37.990Z,9.44
2018-05-02T03:03:37.978Z,9.48
2018-05-02T03:04:37.489Z,9.43
2018-05-02T03:05:37.977Z,9.37
2018-05-02T03:06:37.987Z,9.44
2018-05-02T03:07:37.480Z,9.43
2018-05-02T03:08:37.969Z,9.47
2018-05-02T03:09:37.971Z,9.58
2018-05-02T03:10:37.717Z,9.59
2018-05-02T03:11:37.960Z,9.59
2018-05-02T03:12:37.942Z,9.54
2018-05-02T03:13:37.700Z,9.54
2018-05-02T03:14:37.684Z,9.62
2018-05-02T03:15:37.685Z,9.62
2018-05-02T03:16:37.444Z,9.62
2018-05-02T03:17:37.921Z,9.79
2018-05-02T03:18:37.665Z,9.72
2018-05-02T03:19:37.657Z,9.72
2018-05-02T03:20:37.919Z,9.68
2018-05-02T03:21:37.910Z,9.65
2018-05-02T03:22:37.902Z,9.65
2018-05-02T03:23:37.646Z,9.61
2018-05-02T03:24:37.649Z,9.64
2018-05-02T03:25:37.897Z,9.65
2018-05-02T03:26:37.626Z,9.69
2018-05-02T03:27:37.872Z,9.65
2018-05-02T03:28:37.867Z,9.66
2018-05-02T03:29:37.613Z,9.69
2018-05-02T03:30:37.914Z,9.74
2018-05-02T03:31:37.860Z,9.66
2018-05-02T03:32:37.614Z,9.73
2018-05-02T03:33:37.845Z,9.66
2018-05-02T03:34:37.841Z,9.72
2018-05-02T03:35:37.600Z,9.68
2018-05-02T03:36:37.845Z,9.73
2018-05-02T03:37:37.581Z,9.79
2018-05-02T03:38:37.324Z,9.76
2018-05-02T03:39:37.844Z,9.76
2018-05-02T03:40:37.819Z,9.84
2018-05-02T03:41:37.604Z,9.86
2018-05-02T03:42:37.809Z,9.84
2018-05-02T03:43:37.809Z,9.83
2018-05-02T03:44:37.304Z,9.83
2018-05-02T03:45:37.796Z,9.89
2018-05-02T03:46:37.783Z,9.86
2018-05-02T03:47:37.800Z,9.77
2018-05-02T03:48:37.281Z,9.87
2018-05-02T03:49:37.275Z,9.79
2018-05-02T03:50:37.774Z,9.73
2018-05-02T03:51:37.265Z,9.77
2018-05-02T03:52:37.514Z,9.77
2018-05-02T03:53:37.759Z,9.76
2018-05-02T03:54:37.505Z,9.72
2018-05-02T03:55:37.507Z,9.69
2018-05-02T03:56:37.777Z,9.66
2018-05-02T03:57:37.489Z,9.65
2018-05-02T03:58:37.482Z,9.64
2018-05-02T03:59:37.880Z,9.73
2018-05-02T04:00:37.740Z,9.69
2018-05-02T04:01:37.731Z,9.61
2018-05-02T04:02:37.464Z,9.68
2018-05-02T04:03:37.465Z,9.66
2018-05-02T04:04:37.706Z,9.79
2018-05-02T04:05:37.720Z,9.72
2018-05-02T04:06:37.700Z,9.68
2018-05-02T04:07:37.449Z,9.72
2018-05-02T04:08:37.528Z,9.8
2018-05-02T04:09:37.726Z,9.77
2018-05-02T04:10:37.441Z,9.84
2018-05-02T04:11:37.438Z,9.83
2018-05-02T04:12:37.676Z,9.82
2018-05-02T04:13:37.442Z,9.8
2018-05-02T04:14:37.434Z,9.76
2018-05-02T04:15:37.420Z,9.83
2018-05-02T04:16:37.417Z,9.77
2018-05-02T04:17:37.653Z,9.83
2018-05-02T04:18:39.573Z,9.91
2018-05-02T04:19:37.156Z,9.86
2018-05-02T04:20:37.406Z,9.89
2018-05-02T04:21:37.383Z,9.91
2018-05-02T04:22:37.647Z,9.91
2018-05-02T04:23:37.378Z,9.86
2018-05-02T04:24:37.140Z,9.86
2018-05-02T04:25:37.394Z,9.98
2018-05-02T04:26:37.368Z,9.94
2018-05-02T04:27:37.610Z,9.97
2018-05-02T04:28:37.122Z,9.98
2018-05-02T04:29:37.354Z,10.02
2018-05-02T04:30:37.600Z,9.97
2018-05-02T04:31:37.342Z,10.13
2018-05-02T04:32:37.343Z,9.98
2018-05-02T04:33:37.354Z,10.04
2018-05-02T04:34:37.581Z,10.1
2018-05-02T04:35:37.330Z,10.02
2018-05-02T04:36:37.337Z,10.07
2018-05-02T04:37:37.331Z,10.07
2018-05-02T04:38:37.072Z,10.09
2018-05-02T04:39:37.569Z,10.1
2018-05-02T04:40:37.073Z,10.17
2018-05-02T04:41:37.304Z,10.02
2018-05-02T04:42:37.306Z,10.09
2018-05-02T04:43:37.549Z,9.99
2018-05-02T04:44:37.293Z,10.1
2018-05-02T04:45:37.537Z,10.04
2018-05-02T04:46:37.611Z,10.01
2018-05-02T04:47:37.277Z,10.09
2018-05-02T04:48:37.028Z,10.01
2018-05-02T04:49:37.270Z,10.04
2018-05-02T04:50:37.522Z,9.98
2018-05-02T04:51:37.263Z,9.98
2018-05-02T04:52:37.625Z,9.97
2018-05-02T04:53:37.279Z,10.01
2018-05-02T04:54:37.509Z,9.86
2018-05-02T04:55:37.263Z,9.97
2018-05-02T04:56:37.252Z,9.92
2018-05-02T04:57:37.235Z,10.01
2018-05-02T04:58:37.239Z,9.98
2018-05-02T04:59:37.419Z,9.97
2018-05-02T05:00:37.473Z,10.04
2018-05-02T05:01:37.468Z,9.99
2018-05-02T05:02:37.216Z,9.87
2018-05-02T05:03:37.222Z,9.89
2018-05-02T05:04:37.461Z,9.86
2018-05-02T05:05:37.209Z,9.89
2018-05-02T05:06:37.351Z,10.02
2018-05-02T05:07:37.202Z,9.97
2018-05-02T05:08:37.454Z,9.99
2018-05-02T05:09:37.452Z,10.01
2018-05-02T05:10:37.450Z,9.95
2018-05-02T05:11:37.189Z,9.95
2018-05-02T05:12:37.178Z,10.07
2018-05-02T05:13:37.607Z,10.09
2018-05-02T05:14:37.429Z,9.95
2018-05-02T05:15:37.432Z,9.98
2018-05-02T05:16:37.160Z,10.04
2018-05-02T05:17:37.154Z,9.99
2018-05-02T05:18:37.151Z,10.01
2018-05-02T05:19:37.155Z,10.02
2018-05-02T05:20:37.147Z,10.01
2018-05-02T05:21:37.146Z,10.02
2018-05-02T05:22:37.392Z,10.05
2018-05-02T05:23:36.879Z,9.98
2018-05-02T05:24:37.391Z,9.95
2018-05-02T05:25:37.123Z,9.99
2018-05-02T05:26:37.373Z,9.98
2018-05-02T05:27:36.908Z,9.98
2018-05-02T05:28:37.108Z,9.91
2018-05-02T05:29:36.851Z,9.89
2018-05-02T05:30:36.867Z,9.97
2018-05-02T05:31:37.347Z,10.01
2018-05-02T05:32:37.092Z,9.98
2018-05-02T05:33:37.189Z,10.04
2018-05-02T05:34:37.086Z,10.04
2018-05-02T05:35:37.324Z,10.05
2018-05-02T05:36:37.339Z,10.05
2018-05-02T05:37:37.327Z,10.1
2018-05-02T05:38:37.324Z,10.19
2018-05-02T05:39:37.314Z,9.99
2018-05-02T05:40:37.068Z,10.12
2018-05-02T05:41:37.059Z,10.2
2018-05-02T05:42:36.799Z,10.12
2018-05-02T05:43:37.401Z,10.13
2018-05-02T05:44:37.296Z,10.13
2018-05-02T05:45:37.054Z,10.2
2018-05-02T05:46:37.288Z,10.26
2018-05-02T05:47:37.033Z,10.28
2018-05-02T05:48:37.276Z,10.34
2018-05-02T05:49:39.882Z,10.33
2018-05-02T05:50:37.270Z,10.26
2018-05-02T05:51:37.264Z,10.31
2018-05-02T05:52:37.259Z,10.35
2018-05-02T05:53:36.781Z,10.41
2018-05-02T05:54:37.167Z,10.44
2018-05-02T05:55:37.261Z,10.46
2018-05-02T05:56:37.017Z,10.3
2018-05-02T05:57:37.015Z,10.44
2018-05-02T05:58:36.995Z,10.44
2018-05-02T05:59:37.239Z,10.41
2018-05-02T06:00:36.988Z,10.41
2018-05-02T06:01:37.224Z,10.41
2018-05-02T06:02:36.735Z,10.48
2018-05-02T06:03:37.217Z,10.49
2018-05-02T06:04:37.213Z,10.56
2018-05-02T06:05:37.212Z,10.41
2018-05-02T06:06:37.207Z,10.42
2018-05-02T06:07:36.952Z,10.46
2018-05-02T06:08:37.202Z,10.4
2018-05-02T06:09:37.200Z,10.37
2018-05-02T06:10:36.703Z,10.4
2018-05-02T06:11:36.742Z,10.4
2018-05-02T06:12:37.464Z,10.4
2018-05-02T06:22:15.566Z,10.31
2018-05-02T06:23:15.849Z,10.3
2018-05-02T06:24:14.771Z,10.3
2018-05-02T06:25:15.159Z,10.37
2018-05-02T06:26:14.904Z,10.38
2018-05-02T06:27:15.083Z,10.42
2018-05-02T06:28:15.599Z,10.53
2018-05-02T06:29:14.737Z,10.59
2018-05-02T06:30:15.691Z,10.59
2018-05-02T06:31:15.388Z,10.67
2018-05-02T06:32:15.356Z,10.76
2018-05-02T06:33:15.349Z,10.78
2018-05-02T06:34:14.963Z,10.75
2018-05-02T06:35:15.209Z,10.78
2018-05-02T06:36:14.950Z,10.68
2018-05-02T06:37:14.957Z,10.61
2018-05-02T06:38:15.188Z,10.53
2018-05-02T06:39:15.213Z,10.56
2018-05-02T06:40:14.951Z,10.48
2018-05-02T06:41:15.180Z,10.46
2018-05-02T06:42:14.922Z,10.35
2018-05-02T06:43:14.919Z,10.51
2018-05-02T06:44:15.171Z,10.6
2018-05-02T06:45:14.906Z,10.56
2018-05-02T06:46:15.164Z,10.59
2018-05-02T06:47:14.903Z,10.75
2018-05-02T06:48:15.148Z,10.74
2018-05-02T06:49:15.384Z,10.78
2018-05-02T06:50:14.942Z,10.86
2018-05-02T06:51:15.139Z,10.92
2018-05-02T06:52:15.683Z,10.97
2018-05-02T06:53:15.127Z,11.02
2018-05-02T06:54:14.877Z,11.11
2018-05-02T06:55:14.873Z,11.08
2018-05-02T06:56:14.887Z,11.15
2018-05-02T06:57:15.114Z,11.27
2018-05-02T06:58:14.904Z,11.3
2018-05-02T06:59:15.139Z,11.33
2018-05-02T07:00:15.125Z,11.36
2018-05-02T07:01:14.853Z,11.32
2018-05-02T07:02:15.106Z,11.32
2018-05-02T07:03:15.101Z,11.18
2018-05-02T07:04:15.092Z,11.18
2018-05-02T07:05:15.090Z,11.14
2018-05-02T07:06:15.088Z,11.12
2018-05-02T07:07:15.248Z,11.08
2018-05-02T07:08:14.832Z,11.1
2018-05-02T07:09:15.093Z,11.07
2018-05-02T07:10:14.594Z,11.08
2018-05-02T07:11:14.824Z,11.12
2018-05-02T07:12:15.072Z,11.26
2018-05-02T07:13:14.819Z,11.33
2018-05-02T07:14:14.583Z,11.4
2018-05-02T07:15:15.064Z,11.36
2018-05-02T07:16:14.818Z,11.43
2018-05-02T07:17:15.092Z,11.32
2018-05-02T07:18:15.060Z,11.19
2018-05-02T07:19:15.057Z,11.22
2018-05-02T07:20:15.056Z,11.19
2018-05-02T07:21:14.799Z,11.17
2018-05-02T07:22:16.393Z,11.23
2018-05-02T07:23:14.901Z,11.26
2018-05-02T07:24:14.915Z,11.15
2018-05-02T07:25:14.780Z,11.3
2018-05-02T07:26:15.024Z,11.22
2018-05-02T07:27:14.774Z,11.17
2018-05-02T07:28:14.778Z,11.15
2018-05-02T07:29:14.773Z,11.26
2018-05-02T07:30:14.784Z,11.23
2018-05-02T07:31:15.027Z,11.14
2018-05-02T07:32:14.552Z,11.17
2018-05-02T07:33:14.755Z,11.12
2018-05-02T07:34:15.013Z,11.15
2018-05-02T07:35:14.751Z,11.15
2018-05-02T07:36:14.511Z,11.22
2018-05-02T07:37:14.999Z,11.19
2018-05-02T07:38:14.755Z,11.25
2018-05-02T07:39:14.741Z,11.29
2018-05-02T07:40:14.744Z,11.33
2018-05-02T07:41:14.758Z,11.44
2018-05-02T07:42:14.488Z,11.44
2018-05-02T07:43:15.006Z,11.44
2018-05-02T07:44:14.982Z,11.37
2018-05-02T07:45:14.992Z,11.4
2018-05-02T07:46:14.468Z,11.5
2018-05-02T07:47:14.721Z,11.35
2018-05-02T07:48:14.981Z,11.35
2018-05-02T07:49:14.467Z,11.37
2018-05-02T07:50:14.965Z,11.32
2018-05-02T07:51:14.952Z,11.44
2018-05-02T07:52:15.511Z,11.26
2018-05-02T07:53:14.708Z,11.37
2018-05-02T07:54:14.696Z,11.29
2018-05-02T07:55:14.967Z,11.29
2018-05-02T07:56:14.442Z,11.29
2018-05-02T07:57:14.686Z,11.29
2018-05-02T07:58:14.448Z,11.32
2018-05-02T07:59:14.460Z,11.33
2018-05-02T08:00:14.682Z,11.36
2018-05-02T08:01:14.678Z,11.41
2018-05-02T08:02:14.947Z,11.45
2018-05-02T08:03:14.923Z,11.35
2018-05-02T08:04:14.916Z,11.41
2018-05-02T08:05:14.663Z,11.48
2018-05-02T08:06:14.917Z,11.45
2018-05-02T08:07:14.904Z,11.41
2018-05-02T08:08:14.949Z,11.41
2018-05-02T08:09:14.949Z,11.47
2018-05-02T08:10:14.916Z,11.45
2018-05-02T08:11:14.657Z,11.54
2018-05-02T08:12:14.655Z,11.54
2018-05-02T08:13:14.651Z,11.66
2018-05-02T08:14:14.390Z,11.75
2018-05-02T08:15:14.917Z,11.91
2018-05-02T08:16:14.885Z,11.91
2018-05-02T08:17:14.392Z,12.02
2018-05-02T08:18:14.638Z,12.17
2018-05-02T08:19:14.875Z,12.35
2018-05-02T08:20:14.377Z,12.42
2018-05-02T08:21:14.630Z,12.62
2018-05-02T08:22:15.110Z,12.76
2018-05-02T08:23:14.878Z,12.79
2018-05-02T08:24:14.621Z,12.82
2018-05-02T08:25:14.612Z,12.94
2018-05-02T08:26:14.870Z,13
2018-05-02T08:27:14.872Z,12.95
2018-05-02T08:28:14.866Z,13.01
2018-05-02T08:29:14.866Z,13.01
2018-05-02T08:30:14.615Z,13
2018-05-02T08:31:14.858Z,13.01
2018-05-02T08:32:14.857Z,13.23
2018-05-02T08:33:14.602Z,13.3
2018-05-02T08:34:14.867Z,13.16
2018-05-02T08:35:14.359Z,13.23
2018-05-02T08:36:14.616Z,13.18
2018-05-02T08:37:14.598Z,13.35
2018-05-02T08:38:14.412Z,13.28
2018-05-02T08:39:14.867Z,13.25
2018-05-02T08:40:14.604Z,13.27
2018-05-02T08:41:14.939Z,13.42
2018-05-02T08:42:14.860Z,13.56
2018-05-02T08:43:14.850Z,13.86
2018-05-02T08:44:14.590Z,13.97
2018-05-02T08:45:14.590Z,13.95
2018-05-02T08:46:14.595Z,13.83
2018-05-02T08:47:14.347Z,13.7
2018-05-02T08:48:14.607Z,13.54
2018-05-02T08:49:14.342Z,13.62
2018-05-02T08:50:14.588Z,13.49
2018-05-02T08:51:14.835Z,13.47
2018-05-02T08:52:14.585Z,13.54
2018-05-02T08:53:15.663Z,13.5
2018-05-02T08:54:14.844Z,13.47
2018-05-02T08:55:14.834Z,13.47
2018-05-02T08:56:14.601Z,13.56
2018-05-02T08:57:14.588Z,13.62
2018-05-02T08:58:14.593Z,13.79
2018-05-02T08:59:14.583Z,13.93
2018-05-02T09:00:14.346Z,13.97
2018-05-02T09:01:14.596Z,14.11
2018-05-02T09:02:14.857Z,14.11
2018-05-02T09:03:14.850Z,14.03
2018-05-02T09:04:14.829Z,14.15
2018-05-02T09:05:14.839Z,14.18
2018-05-02T09:06:14.832Z,14.36
2018-05-02T09:07:14.832Z,14.62
2018-05-02T09:08:14.597Z,14.73
2018-05-02T09:09:14.585Z,14.97
2018-05-02T09:10:14.845Z,15.24
2018-05-02T09:11:14.666Z,15.42
2018-05-02T09:12:14.678Z,15.61
2018-05-02T09:13:14.840Z,15.44
2018-05-02T09:14:14.606Z,15.36
2018-05-02T09:15:14.346Z,15.18
2018-05-02T09:16:14.833Z,14.97
2018-05-02T09:17:14.354Z,14.85
2018-05-02T09:18:14.592Z,14.69
2018-05-02T09:19:14.834Z,14.78
2018-05-02T09:20:14.840Z,14.89
2018-05-02T09:21:14.834Z,15
2018-05-02T09:22:14.346Z,15.24
2018-05-02T09:23:15.661Z,15.24
2018-05-02T09:24:14.855Z,15.15
2018-05-02T09:25:14.598Z,15.11
2018-05-02T09:26:14.839Z,15.18
2018-05-02T09:27:14.839Z,15.07
2018-05-02T09:28:14.843Z,15.07
2018-05-02T09:29:14.849Z,15.22
2018-05-02T09:30:14.843Z,15.39
2018-05-02T09:31:14.345Z,15.59
2018-05-02T09:32:14.603Z,15.65
2018-05-02T09:33:14.598Z,15.67
2018-05-02T09:34:14.605Z,15.62
2018-05-02T09:35:14.852Z,15.65
2018-05-02T09:36:14.611Z,15.72
2018-05-02T09:37:14.863Z,15.7
2018-05-02T09:38:14.852Z,15.54
2018-05-02T09:39:14.857Z,15.58
2018-05-02T09:40:14.858Z,15.46
2018-05-02T09:41:14.606Z,15.27
2018-05-02T09:42:14.609Z,15.19
2018-05-02T09:43:14.611Z,15.21
2018-05-02T09:44:15.226Z,15.17
2018-05-02T09:45:14.612Z,15.14
2018-05-02T09:46:14.367Z,15.14
2018-05-02T09:47:14.613Z,15.17
2018-05-02T09:48:14.368Z,15.25
2018-05-02T09:49:14.366Z,15.33
2018-05-02T09:50:14.370Z,15.59
2018-05-02T09:51:14.625Z,15.75
2018-05-02T09:52:14.619Z,15.88
2018-05-02T09:53:14.378Z,15.73
2018-05-02T09:54:14.627Z,15.54
2018-05-02T09:55:14.372Z,15.36
2018-05-02T09:56:14.886Z,15.25
2018-05-02T09:57:14.625Z,15.27
2018-05-02T09:58:14.451Z,15.36
2018-05-02T09:59:14.671Z,15.44
2018-05-02T10:00:14.627Z,15.62
2018-05-02T10:01:14.624Z,15.83
2018-05-02T10:02:14.637Z,15.97
2018-05-02T10:03:14.879Z,16.08
2018-05-02T10:04:14.630Z,16.13
2018-05-02T10:05:14.399Z,16.1
2018-05-02T10:06:14.384Z,16.2
2018-05-02T10:07:14.638Z,16.15
2018-05-02T10:08:14.385Z,16.16
2018-05-02T10:09:14.889Z,16.08
2018-05-02T10:10:14.909Z,16.04
2018-05-02T10:11:14.910Z,15.92
2018-05-02T10:12:14.646Z,15.75
2018-05-02T10:13:14.395Z,15.59
2018-05-02T10:14:14.643Z,15.65
2018-05-02T10:15:14.894Z,15.55
2018-05-02T10:16:14.670Z,15.52
2018-05-02T10:17:14.893Z,15.52
2018-05-02T10:18:14.406Z,15.58
2018-05-02T10:19:14.648Z,15.68
2018-05-02T10:20:14.651Z,15.79
2018-05-02T10:21:14.915Z,15.64
2018-05-02T10:22:14.657Z,15.79
2018-05-02T10:52:45.817Z,15.67
2018-05-02T10:53:45.797Z,15.7
2018-05-02T10:54:46.038Z,15.68
2018-05-02T10:55:45.580Z,15.62
2018-05-02T10:56:46.037Z,15.62
2018-05-02T10:57:45.555Z,15.57
2018-05-02T10:58:45.541Z,15.54
2018-05-02T10:59:46.029Z,15.55
2018-05-02T11:00:46.092Z,15.58
2018-05-02T11:01:45.795Z,15.64
2018-05-02T11:02:46.030Z,15.79
2018-05-02T11:03:46.029Z,15.84
2018-05-02T11:04:46.021Z,16
2018-05-02T11:05:46.073Z,16.02
2018-05-02T11:06:45.786Z,16.1
2018-05-02T11:07:46.036Z,16.28
2018-05-02T11:08:45.533Z,16.38
2018-05-02T11:09:45.774Z,16.53
2018-05-02T11:10:45.886Z,16.71
2018-05-02T11:11:45.794Z,16.83
2018-05-02T11:12:45.783Z,17.01
2018-05-02T11:13:45.789Z,17.12
2018-05-02T11:14:45.530Z,17.27
2018-05-02T11:15:45.794Z,17.29
2018-05-02T11:16:45.794Z,17.05
2018-05-02T11:17:46.578Z,16.86
2018-05-02T11:18:46.042Z,16.76
2018-05-02T11:19:45.784Z,16.69
2018-05-02T11:20:46.097Z,16.76
2018-05-02T11:21:45.803Z,16.83
2018-05-02T11:22:46.052Z,16.89
2018-05-02T11:23:46.044Z,16.83
2018-05-02T11:24:45.791Z,16.66
2018-05-02T11:25:45.803Z,16.38
2018-05-02T11:26:45.797Z,16.46
2018-05-02T11:27:46.844Z,16.51
2018-05-02T11:28:45.805Z,16.64
2018-05-02T11:29:45.797Z,16.51
2018-05-02T11:30:46.136Z,16.74
2018-05-02T11:31:46.062Z,16.76
2018-05-02T11:32:45.804Z,16.86
2018-05-02T11:33:46.110Z,16.91
2018-05-02T11:34:46.314Z,16.99
2018-05-02T11:35:45.814Z,16.96
2018-05-02T11:36:45.811Z,16.96
2018-05-02T11:37:46.057Z,16.97
2018-05-02T11:38:45.820Z,16.93
2018-05-02T11:39:46.057Z,16.84
2018-05-02T11:40:45.612Z,16.87
2018-05-02T11:41:45.818Z,16.97
2018-05-02T11:42:45.578Z,17.06
2018-05-02T11:43:45.593Z,17.01
2018-05-02T11:44:46.071Z,17.04
2018-05-02T11:45:45.908Z,16.93
2018-05-02T11:46:46.083Z,16.75
2018-05-02T11:47:46.622Z,16.86
2018-05-02T11:48:46.082Z,16.74
2018-05-02T11:49:46.092Z,16.81
2018-05-02T11:50:46.078Z,16.83
2018-05-02T11:51:46.077Z,16.93
2018-05-02T11:52:45.848Z,17.14
2018-05-02T11:53:45.592Z,17.34
2018-05-02T11:54:46.158Z,17.36
2018-05-02T11:55:46.083Z,17.39
2018-05-02T11:56:45.844Z,17.34
2018-05-02T11:57:45.975Z,17.12
2018-05-02T11:58:46.084Z,17.08
2018-05-02T11:59:46.104Z,16.99
2018-05-02T12:00:45.850Z,17.02
2018-05-02T12:01:45.858Z,17.08
2018-05-02T12:02:45.962Z,17.3
2018-05-02T12:03:46.099Z,17.31
2018-05-02T12:04:46.121Z,17.59
2018-05-02T12:05:46.168Z,17.63
2018-05-02T12:06:45.854Z,17.71
2018-05-02T12:07:45.876Z,17.94
2018-05-02T12:08:45.621Z,17.89
2018-05-02T12:09:46.128Z,17.8
2018-05-02T12:10:45.712Z,17.94
2018-05-02T12:11:45.873Z,18.07
2018-05-02T12:12:45.868Z,18.03
2018-05-02T12:13:45.865Z,18.15
2018-05-02T12:14:45.876Z,18.13
2018-05-02T12:15:45.880Z,18.05
2018-05-02T12:16:46.136Z,18.05
2018-05-02T12:17:45.892Z,18.15
2018-05-02T12:18:46.138Z,18.38
2018-05-02T12:19:45.907Z,18.52
2018-05-02T12:20:46.200Z,18.6
2018-05-02T12:21:46.134Z,18.63
2018-05-02T12:22:45.882Z,18.7
2018-05-02T12:23:45.901Z,18.71
2018-05-02T12:24:46.158Z,18.49
2018-05-02T12:25:45.891Z,18.52
2018-05-02T12:26:46.150Z,18.44
2018-05-02T12:27:46.398Z,18.52
2018-05-02T12:28:46.147Z,18.37
2018-05-02T12:29:46.164Z,18.34
2018-05-02T12:30:45.926Z,18.37
2018-05-02T12:31:45.907Z,18.22
2018-05-02T12:32:45.912Z,18.05
2018-05-02T12:33:46.161Z,17.95
2018-05-02T12:34:45.927Z,17.92
2018-05-02T12:35:45.919Z,17.9
2018-05-02T12:36:45.928Z,17.94
2018-05-02T12:37:45.933Z,17.95
2018-05-02T12:38:45.933Z,17.94
2018-05-02T12:39:45.929Z,17.92
2018-05-02T12:40:46.314Z,17.79
2018-05-02T12:41:46.180Z,17.78
2018-05-02T12:42:45.932Z,17.94
2018-05-02T12:43:46.182Z,17.9
2018-05-02T12:44:45.936Z,17.95
2018-05-02T12:45:46.069Z,18.04
2018-05-02T12:46:46.519Z,18.05
2018-05-02T12:47:45.962Z,18.2
2018-05-02T12:48:45.701Z,18.31
2018-05-02T12:49:46.204Z,18.49
2018-05-02T12:50:46.200Z,18.41
2018-05-02T12:51:45.733Z,18.44
2018-05-02T12:52:45.730Z,18.5
2018-05-02T12:53:46.233Z,18.41
2018-05-02T12:54:45.959Z,18.34
2018-05-02T12:55:45.994Z,18.37
2018-05-02T12:56:46.207Z,18.41
2018-05-02T12:57:46.208Z,18.33
2018-05-02T12:58:46.210Z,18.33
2018-05-02T12:59:46.224Z,18.23
2018-05-02T13:00:46.049Z,18.26
2018-05-02T13:01:46.229Z,18.35
2018-05-02T13:02:45.999Z,18.43
2018-05-02T13:03:45.983Z,18.52
2018-05-02T13:04:45.752Z,18.56
2018-05-02T13:05:45.985Z,18.68
2018-05-02T13:06:45.997Z,18.81
2018-05-02T13:07:46.230Z,19.02
2018-05-02T13:08:46.232Z,19.09
2018-05-02T13:09:46.280Z,19.12
2018-05-02T13:10:45.997Z,19.16
2018-05-02T13:11:46.255Z,19.08
2018-05-02T13:12:45.774Z,18.92
2018-05-02T13:13:45.996Z,18.89
2018-05-02T13:14:46.021Z,18.66
2018-05-02T13:15:45.857Z,18.47
2018-05-02T13:16:46.016Z,18.31
2018-05-02T13:17:46.024Z,18.28
2018-05-02T13:18:46.022Z,18.22
2018-05-02T13:19:46.258Z,18.28
2018-05-02T13:20:46.332Z,18.23
2018-05-02T13:21:46.257Z,18.26
2018-05-02T13:22:46.018Z,18.2
2018-05-02T13:23:46.018Z,18.25
2018-05-02T13:24:46.028Z,18.25
2018-05-02T13:25:46.056Z,18.43
2018-05-02T13:26:46.287Z,18.35
2018-05-02T13:27:46.029Z,18.43
2018-05-02T13:28:46.318Z,18.52
2018-05-02T13:29:46.297Z,18.55
2018-05-02T13:30:46.091Z,18.6
2018-05-02T13:31:46.287Z,18.59
2018-05-02T13:32:46.051Z,18.47
2018-05-02T13:33:46.052Z,18.47
2018-05-02T13:34:46.085Z,18.68
2018-05-02T13:35:46.037Z,18.55
2018-05-02T13:36:46.060Z,18.66
2018-05-02T13:37:46.291Z,18.55
2018-05-02T13:38:46.309Z,18.73
2018-05-02T13:39:45.803Z,18.81
2018-05-02T13:40:46.059Z,18.84
2018-05-02T13:41:46.316Z,18.83
2018-05-02T13:42:46.056Z,18.65